Weston, Missouri
Current Conditions -  °F | °C
As of 4:53 PM on Friday 28 Nov 2014 (Local Time) from KMCI Reporting Station
Broken Clouds Broken Clouds  
Wind Chill: 50°   Ceiling: 25000
Heat Index: 50°   Visibility: 10mi
Dew Point: 34°   Wind: 10mph
Humidity: 54%   Direction: 180°S
Pressure: 29.79"   Gusts: NA
Location:  39.41°N, 94.9°W
Report Text: KMCI 282253Z 18009KT 10SM BKN250 10/01 A2979 RMK AO2 SLP090 T01000011
Loading
Personal Weather Stations






























Interactive Weather Map New forecast layout! Learn more

10-Day Weather Forecast

Advertisements
Track Severe Weather on mobile